Time;durP1;ratioP1;P1;durP2;ratioP2;P2;SDS_P1;SDS_P2;PMS_P1;PMS_P2;Temp;Humidity;BMP_temperature;BMP_pressure;BME280_temperature;BME280_humidity;BME280_pressure;Samples;Min_cycle;Max_cycle;Signal;HPM_P1;HPM_P2
2022/10/13 00:01:45;;;;;;;9.33;4.67;;;;;;;5.52;100.00;102032.63;4918612;29;20082;-77
2022/10/13 00:04:10;;;;;;;8.87;4.70;;;;;;;5.56;100.00;102031.47;4917809;29;20571;-76
2022/10/13 00:06:36;;;;;;;12.13;3.97;;;;;;;5.54;100.00;102033.38;4935628;29;20472;-77
2022/10/13 00:09:02;;;;;;;6.17;4.27;;;;;;;5.50;100.00;102031.88;4935469;29;20440;-77
2022/10/13 00:11:29;;;;;;;7.97;4.80;;;;;;;5.52;100.00;102033.47;4935207;29;20031;-77
2022/10/13 00:14:00;;;;;;;7.83;4.23;;;;;;;5.45;100.00;102028.66;4935153;29;20032;-76
2022/10/13 00:16:26;;;;;;;10.73;5.00;;;;;;;5.42;100.00;102039.44;4935379;29;20118;-75
2022/10/13 00:18:52;;;;;;;7.13;3.77;;;;;;;5.38;100.00;102043.22;4935375;29;20032;-77
2022/10/13 00:21:21;;;;;;;9.27;5.20;;;;;;;5.31;100.00;102041.91;4935346;29;20054;-77
2022/10/13 00:23:47;;;;;;;5.93;4.23;;;;;;;5.24;100.00;102036.19;4935398;29;20036;-75
2022/10/13 00:26:14;;;;;;;8.27;4.77;;;;;;;5.18;100.00;102037.38;4935068;29;20138;-75
2022/10/13 00:28:40;;;;;;;5.77;4.20;;;;;;;5.15;100.00;102044.66;4935104;29;20037;-76
2022/10/13 00:31:18;;;;;;;10.63;4.77;;;;;;;5.15;100.00;102042.88;4935411;29;20475;-77
2022/10/13 00:33:44;;;;;;;;;;;;;;;5.19;100.00;102049.66;4935469;29;20043;-77
2022/10/13 00:36:10;;;;;;;12.57;5.03;;;;;;;5.14;100.00;102035.03;4934989;29;19935;-77
2022/10/13 00:38:36;;;;;;;7.57;4.93;;;;;;;5.11;100.00;102036.09;4918017;29;20503;-77
2022/10/13 00:41:02;;;;;;;12.10;5.10;;;;;;;5.06;100.00;102035.53;4935089;29;20106;-76
2022/10/13 00:43:46;;;;;;;11.80;5.53;;;;;;;5.04;100.00;102040.06;4935113;29;20463;-76
2022/10/13 00:46:14;;;;;;;7.30;4.07;;;;;;;4.94;100.00;102038.94;4935177;29;20054;-76
2022/10/13 00:48:42;;;;;;;8.23;4.70;;;;;;;4.89;100.00;102031.28;4918153;29;20036;-76
2022/10/13 00:51:09;;;;;;;8.97;4.23;;;;;;;4.86;100.00;102042.03;4934770;29;20096;-77
2022/10/13 00:53:37;;;;;;;8.53;5.07;;;;;;;4.83;100.00;102042.22;4934884;29;20443;-77
2022/10/13 00:56:06;;;;;;;8.63;4.30;;;;;;;4.81;100.00;102044.13;4934857;29;20103;-77
2022/10/13 00:58:33;;;;;;;8.40;4.63;;;;;;;4.62;100.00;102018.00;4935052;29;20103;-76
2022/10/13 01:01:02;;;;;;;8.73;4.07;;;;;;;4.74;100.00;102048.09;4934827;29;20063;-76
2022/10/13 01:03:28;;;;;;;7.60;5.03;;;;;;;4.71;100.00;102037.72;4934621;29;20039;-76
2022/10/13 01:05:57;;;;;;;8.17;3.93;;;;;;;4.71;100.00;102047.41;4934659;29;20055;-76
2022/10/13 01:08:25;;;;;;;6.32;3.33;;;;;;;4.70;100.00;102051.00;4917764;29;20039;-76
2022/10/13 01:10:54;;;;;;;5.50;3.67;;;;;;;4.69;100.00;102055.44;4936710;29;20500;-77
2022/10/13 01:13:39;;;;;;;6.32;3.38;;;;;;;4.69;100.00;102054.59;4936287;29;20620;-77
2022/10/13 01:16:29;;;;;;;7.33;3.50;;;;;;;4.70;100.00;102053.66;4938035;29;20032;-78
2022/10/13 01:19:12;;;;;;;5.77;4.10;;;;;;;4.67;100.00;102059.97;4921901;29;20511;-76
2022/10/13 01:21:58;;;;;;;3.73;2.87;;;;;;;4.65;100.00;102060.06;4938675;29;20107;-75
2022/10/13 01:24:40;;;;;;;6.63;3.60;;;;;;;4.68;100.00;102064.28;4938433;29;20472;-77
2022/10/13 01:27:47;;;;;;;8.63;3.20;;;;;;;4.71;100.00;102060.63;4905689;29;20062;-77
2022/10/13 01:30:21;;;;;;;5.60;3.47;;;;;;;4.65;100.00;102049.50;4913438;29;20040;-77
2022/10/13 01:33:13;;;;;;;6.17;3.60;;;;;;;4.79;100.00;102063.63;4938242;29;20124;-77
2022/10/13 01:35:53;;;;;;;6.13;3.13;;;;;;;4.79;100.00;102050.44;4939345;29;20121;-77
2022/10/13 01:38:47;;;;;;;8.83;3.30;;;;;;;4.98;100.00;102058.94;4950117;29;20020;-77
2022/10/13 01:41:38;;;;;;;9.67;3.33;;;;;;;5.10;100.00;102063.44;4941403;29;20030;-76
2022/10/13 01:44:15;;;;;;;5.93;3.43;;;;;;;5.09;100.00;102051.19;4935872;29;20044;-76
2022/10/13 01:46:46;;;;;;;5.47;2.63;;;;;;;5.18;100.00;102063.78;4938917;29;20043;-76
2022/10/13 01:49:20;;;;;;;6.33;3.20;;;;;;;5.20;100.00;102055.78;4937917;29;20054;-76
2022/10/13 01:51:48;;;;;;;4.50;2.93;;;;;;;5.20;100.00;102055.78;4937932;29;20383;-77
2022/10/13 01:54:14;;;;;;;3.97;2.50;;;;;;;4.93;100.00;102021.41;4937767;29;20484;-75
2022/10/13 01:56:39;;;;;;;4.00;2.47;;;;;;;5.14;100.00;102067.56;4920889;29;20098;-76
2022/10/13 01:59:12;;;;;;;4.83;2.90;;;;;;;5.08;100.00;102061.84;4937944;29;20435;-77
2022/10/13 02:01:53;;;;;;;4.07;2.60;;;;;;;5.04;100.00;102071.75;4937852;29;20143;-77
2022/10/13 02:04:21;;;;;;;6.13;3.93;;;;;;;4.94;100.00;102065.34;4920614;29;20035;-76
2022/10/13 02:06:52;;;;;;;6.78;2.58;;;;;;;4.81;100.00;102059.09;4937828;29;20027;-76
2022/10/13 02:09:38;;;;;;;4.53;3.03;;;;;;;4.74;100.00;102057.78;4937891;29;20035;-76
2022/10/13 02:12:23;;;;;;;5.80;2.60;;;;;;;4.69;100.00;102068.63;4937737;29;20073;-76
2022/10/13 02:14:51;;;;;;;4.73;3.00;;;;;;;4.64;100.00;102074.19;4920341;29;20079;-76
2022/10/13 02:17:17;;;;;;;6.97;3.53;;;;;;;4.56;100.00;102071.13;4937438;29;20027;-77
2022/10/13 02:19:43;;;;;;;3.67;2.03;;;;;;;4.50;100.00;102065.38;4936390;29;20036;-76
2022/10/13 02:22:12;;;;;;;10.13;3.60;;;;;;;4.49;100.00;102069.81;4918700;29;20028;-77
2022/10/13 02:24:38;;;;;;;7.03;3.43;;;;;;;4.49;100.00;102077.72;4918942;29;20064;-77
2022/10/13 02:27:05;;;;;;;7.83;3.73;;;;;;;4.46;100.00;102079.69;4934979;29;20367;-77
2022/10/13 02:29:31;;;;;;;5.47;2.97;;;;;;;4.46;100.00;102077.91;4936202;29;20408;-77
2022/10/13 02:31:57;;;;;;;5.23;2.93;;;;;;;4.46;100.00;102079.69;4936408;29;20042;-77
2022/10/13 02:34:22;;;;;;;4.67;2.63;;;;;;;4.42;100.00;102075.56;4937346;29;20035;-76
2022/10/13 02:36:48;;;;;;;3.87;2.27;;;;;;;4.35;100.00;102072.44;4937177;29;20032;-76
2022/10/13 02:39:14;;;;;;;3.10;1.93;;;;;;;4.34;100.00;102070.75;4937177;29;20040;-77
2022/10/13 02:41:39;;;;;;;3.87;2.27;;;;;;;4.34;100.00;102073.38;4936991;29;20367;-77
2022/10/13 02:44:05;;;;;;;5.50;3.27;;;;;;;4.32;100.00;102077.88;4937128;29;20036;-76
2022/10/13 02:46:34;;;;;;;9.47;2.57;;;;;;;4.30;100.00;102079.75;4936838;29;20051;-76
2022/10/13 02:49:06;;;;;;;7.30;2.53;;;;;;;4.22;100.00;102069.66;4937223;29;20506;-77
2022/10/13 02:51:31;;;;;;;2.93;2.23;;;;;;;4.25;100.00;102071.25;4936809;29;20251;-77
2022/10/13 02:53:57;;;;;;;4.90;2.83;;;;;;;4.10;100.00;102061.63;4936887;29;20047;-77
2022/10/13 02:56:22;;;;;;;5.30;2.90;;;;;;;4.20;100.00;102083.88;4937004;29;20027;-78
2022/10/13 02:58:48;;;;;;;5.90;2.60;;;;;;;4.14;100.00;102076.31;4937019;29;20031;-77
2022/10/13 03:01:14;;;;;;;6.20;2.97;;;;;;;4.20;100.00;102083.88;4936804;29;20027;-77
2022/10/13 03:03:40;;;;;;;4.80;2.63;;;;;;;4.17;100.00;102087.53;4936574;29;20035;-76
2022/10/13 03:06:06;;;;;;;3.07;2.33;;;;;;;4.11;100.00;102087.03;4936621;29;20050;-76
2022/10/13 03:08:33;;;;;;;3.20;2.50;;;;;;;4.12;100.00;102091.38;4936723;29;20495;-76
2022/10/13 03:10:59;;;;;;;4.83;2.53;;;;;;;4.08;100.00;102095.13;4936349;29;20063;-78
2022/10/13 03:13:26;;;;;;;5.07;3.27;;;;;;;4.06;100.00;102086.47;4903833;29;20330;-77
2022/10/13 03:15:52;;;;;;;5.57;2.83;;;;;;;4.04;100.00;102090.00;4936658;29;20354;-76
2022/10/13 03:18:18;;;;;;;5.27;3.63;;;;;;;4.02;100.00;102093.69;4919261;29;20543;-76
2022/10/13 03:20:43;;;;;;;6.17;3.17;;;;;;;3.94;100.00;102080.94;4936475;29;20032;-77
2022/10/13 03:23:10;;;;;;;5.37;3.20;;;;;;;3.98;100.00;102106.19;4919163;29;20057;-77
2022/10/13 03:25:35;;;;;;;3.77;2.90;;;;;;;3.94;100.00;102109.94;4936958;29;20038;-78
2022/10/13 03:28:01;;;;;;;6.57;3.07;;;;;;;3.96;100.00;102108.06;4937564;29;20032;-75
2022/10/13 03:30:28;;;;;;;7.60;3.20;;;;;;;3.91;100.00;102094.31;4938477;29;20460;-76
2022/10/13 03:32:53;;;;;;;5.83;4.00;;;;;;;3.93;100.00;102100.34;4920376;29;20138;-75
2022/10/13 03:35:19;;;;;;;6.53;4.43;;;;;;;3.87;100.00;102098.06;4920377;29;20299;-75
2022/10/13 03:37:45;;;;;;;5.87;3.47;;;;;;;3.85;100.00;102099.94;4936366;29;20038;-77
2022/10/13 03:40:11;;;;;;;9.37;4.17;;;;;;;3.85;100.00;102102.56;4935888;29;20470;-76
2022/10/13 03:42:38;;;;;;;5.40;3.80;;;;;;;3.76;100.00;102089.91;4936260;29;20032;-76
2022/10/13 03:45:04;;;;;;;3.33;3.03;;;;;;;3.78;100.00;102097.72;4936022;29;20263;-77
2022/10/13 03:47:34;;;;;;;5.77;3.07;;;;;;;3.79;100.00;102104.69;4935954;29;20290;-77
2022/10/13 03:50:00;;;;;;;7.60;3.47;;;;;;;3.53;100.00;102069.25;4935882;29;20287;-77
2022/10/13 03:52:26;;;;;;;4.97;3.10;;;;;;;3.76;100.00;102100.44;4935893;29;20330;-76
2022/10/13 03:54:51;;;;;;;4.77;3.63;;;;;;;3.73;100.00;102105.88;4936137;29;20031;-79
2022/10/13 03:57:17;;;;;;;5.23;3.57;;;;;;;3.73;100.00;102113.78;4919134;29;20159;-79
2022/10/13 03:59:42;;;;;;;4.47;3.40;;;;;;;3.63;100.00;102094.16;4937669;29;20075;-75
2022/10/13 04:02:08;;;;;;;5.50;3.80;;;;;;;3.43;100.00;102064.50;4918995;29;20039;-77
2022/10/13 04:04:34;;;;;;;7.23;4.53;;;;;;;3.72;100.00;102114.69;4935726;29;20071;-77
2022/10/13 04:07:00;;;;;;;6.43;3.93;;;;;;;3.69;100.00;102113.09;4937207;29;20028;-77
2022/10/13 04:09:26;;;;;;;5.37;3.47;;;;;;;3.54;100.00;102092.88;4938387;29;20036;-77
2022/10/13 04:11:51;;;;;;;6.57;4.10;;;;;;;3.66;100.00;102122.97;4936671;29;20042;-75
2022/10/13 04:14:41;;;;;;;6.00;3.83;;;;;;;3.66;100.00;102115.06;4920749;29;20295;-75
2022/10/13 04:17:16;;;;;;;6.87;3.27;;;;;;;3.59;100.00;102111.06;4919161;29;20043;-78
2022/10/13 04:19:43;;;;;;;10.90;4.10;;;;;;;3.63;100.00;102120.50;4955541;28;20296;-77
2022/10/13 04:22:08;;;;;;;7.33;4.20;;;;;;;3.61;100.00;102123.22;4959839;28;20267;-73
2022/10/13 04:24:34;;;;;;;6.90;4.10;;;;;;;3.59;100.00;102122.44;4955513;29;20717;-71
2022/10/13 04:26:59;;;;;;;7.50;3.37;;;;;;;3.53;100.00;102104.34;4956414;29;20027;-73
2022/10/13 04:29:25;;;;;;;9.97;4.07;;;;;;;3.55;100.00;102109.53;4939135;29;20147;-76
2022/10/13 04:31:51;;;;;;;7.20;4.17;;;;;;;3.55;100.00;102117.44;4936065;29;20036;-76
2022/10/13 04:34:16;;;;;;;9.10;4.70;;;;;;;3.58;100.00;102122.53;4935872;29;20519;-80
2022/10/13 04:36:42;;;;;;;9.87;4.83;;;;;;;3.56;100.00;102129.69;4936083;29;20126;-74
2022/10/13 04:39:07;;;;;;;9.47;5.07;;;;;;;3.52;100.00;102117.63;4918398;29;20325;-75
2022/10/13 04:41:33;;;;;;;7.83;5.17;;;;;;;3.50;100.00;102125.59;4918302;29;20030;-76
2022/10/13 04:44:01;;;;;;;9.17;5.50;;;;;;;3.56;100.00;102129.69;4935418;29;20038;-74
2022/10/13 04:46:27;;;;;;;11.70;7.50;;;;;;;3.50;100.00;102122.13;4918118;29;20392;-75
2022/10/13 04:48:54;;;;;;;9.07;5.03;;;;;;;3.53;100.00;102125.44;4934809;29;20046;-72
2022/10/13 04:51:22;;;;;;;13.03;7.10;;;;;;;3.55;100.00;102127.97;4934927;29;20290;-76
2022/10/13 04:53:52;;;;;;;16.63;8.95;;;;;;;3.55;100.00;102130.63;4918434;29;20331;-75
2022/10/13 04:56:17;;;;;;;20.13;9.83;;;;;;;3.56;100.00;102138.44;4935492;29;20041;-76
2022/10/13 04:58:44;;;;;;;8.83;5.43;;;;;;;3.60;100.00;102142.59;4939130;29;20256;-72
2022/10/13 05:01:13;;;;;;;17.97;7.10;;;;;;;3.64;100.00;102148.53;4935538;29;20047;-76
2022/10/13 05:03:39;;;;;;;11.10;6.07;;;;;;;3.57;100.00;102134.00;4935024;29;20291;-75
2022/10/13 05:06:04;;;;;;;14.83;6.93;;;;;;;3.65;100.00;102140.56;4934840;29;20035;-76
2022/10/13 05:08:31;;;;;;;12.57;7.03;;;;;;;3.63;100.00;102141.56;4935068;29;20098;-75
2022/10/13 05:11:00;;;;;;;8.50;5.83;;;;;;;3.68;100.00;102144.78;4934800;29;20059;-76
2022/10/13 05:13:27;;;;;;;10.05;5.60;;;;;;;3.68;100.00;102134.25;4934932;29;20263;-75
2022/10/13 05:15:58;;;;;;;10.07;7.03;;;;;;;3.72;100.00;102143.69;4936418;29;20046;-74
2022/10/13 05:18:24;;;;;;;11.20;7.63;;;;;;;3.79;100.00;102150.34;4950772;29;20255;-74
2022/10/13 05:20:50;;;;;;;11.40;7.10;;;;;;;3.80;100.00;102154.69;4951353;29;20024;-73
2022/10/13 05:23:15;;;;;;;11.93;8.17;;;;;;;3.86;100.00;102153.47;4940480;29;20087;-77
2022/10/13 05:25:41;;;;;;;12.50;8.53;;;;;;;3.87;100.00;102150.75;4935987;29;20360;-77
2022/10/13 05:28:07;;;;;;;12.83;7.83;;;;;;;3.89;100.00;102146.25;4935745;29;20036;-78
2022/10/13 05:30:34;;;;;;;9.70;8.27;;;;;;;3.90;100.00;102147.94;4934630;29;20086;-78
2022/10/13 05:32:59;;;;;;;10.43;7.43;;;;;;;3.91;100.00;102141.75;4934588;29;20035;-74
2022/10/13 05:35:26;;;;;;;17.80;7.93;;;;;;;4.01;100.00;102157.88;4935177;29;20326;-74
2022/10/13 05:37:51;;;;;;;10.10;7.17;;;;;;;4.07;100.00;102151.44;4935095;29;20538;-74
2022/10/13 05:40:17;;;;;;;11.43;6.77;;;;;;;4.11;100.00;102153.81;4935024;29;20263;-73
2022/10/13 05:42:42;;;;;;;12.57;7.83;;;;;;;4.13;100.00;102149.28;4934665;29;20035;-76
2022/10/13 05:45:09;;;;;;;12.50;5.63;;;;;;;4.15;100.00;102150.06;4935189;29;20127;-77
2022/10/13 05:47:35;;;;;;;9.30;6.30;;;;;;;4.25;100.00;102151.22;4918030;29;20044;-75
2022/10/13 05:50:00;;;;;;;8.93;5.10;;;;;;;4.37;100.00;102156.75;4935070;29;20282;-73
2022/10/13 05:52:27;;;;;;;22.60;19.27;;;;;;;4.39;100.00;102152.22;4939098;29;20083;-75
2022/10/13 05:54:56;;;;;;;14.17;9.37;;;;;;;4.47;100.00;102161.38;4938777;29;20054;-75
2022/10/13 05:57:29;;;;;;;10.77;6.77;;;;;;;4.49;100.00;102159.50;4935261;29;20263;-73
2022/10/13 06:00:02;;;;;;;15.07;8.33;;;;;;;4.46;100.00;102143.88;4936186;29;20281;-73
2022/10/13 06:02:38;;;;;;;10.73;6.17;;;;;;;4.60;100.00;102159.72;4939380;29;20372;-75
2022/10/13 06:05:07;;;;;;;8.20;4.90;;;;;;;4.69;100.00;102149.59;4938808;29;20379;-73
2022/10/13 06:07:33;;;;;;;8.50;4.40;;;;;;;4.76;100.00;102158.84;4939602;29;20483;-78
2022/10/13 06:10:00;;;;;;;7.10;4.43;;;;;;;4.80;100.00;102149.78;4946459;29;20351;-74
2022/10/13 06:12:25;;;;;;;6.33;4.47;;;;;;;4.85;100.00;102156.47;4946883;29;20032;-76
2022/10/13 06:14:50;;;;;;;7.03;4.70;;;;;;;4.87;100.00;102154.59;4950336;29;20023;-77
2022/10/13 06:17:16;;;;;;;5.73;4.17;;;;;;;5.01;100.00;102161.72;4946751;29;20444;-75
2022/10/13 06:19:42;;;;;;;9.83;3.87;;;;;;;5.03;100.00;102157.19;4941584;29;20070;-76
2022/10/13 06:22:07;;;;;;;8.83;4.03;;;;;;;5.05;100.00;102152.66;4941385;29;20036;-78
2022/10/13 06:24:33;;;;;;;8.60;4.00;;;;;;;5.15;100.00;102164.34;4943811;29;20042;-76
2022/10/13 06:26:58;;;;;;;6.17;4.13;;;;;;;5.14;100.00;102161.81;4945751;29;20512;-76
2022/10/13 06:29:24;;;;;;;6.73;3.50;;;;;;;5.20;100.00;102167.59;4947153;29;20024;-75
2022/10/13 06:31:50;;;;;;;6.30;4.00;;;;;;;5.24;100.00;102157.69;4942272;29;20523;-77
2022/10/13 06:34:15;;;;;;;5.63;3.70;;;;;;;5.25;100.00;102160.22;4938742;29;20053;-75
2022/10/13 06:36:41;;;;;;;6.77;3.90;;;;;;;5.29;100.00;102163.53;4941026;29;20028;-75
2022/10/13 06:39:07;;;;;;;6.13;3.20;;;;;;;5.37;100.00;102168.31;4941570;29;20039;-75
2022/10/13 06:41:32;;;;;;;7.27;3.43;;;;;;;5.38;100.00;102162.94;4942964;29;20083;-74
2022/10/13 06:43:58;;;;;;;4.37;3.60;;;;;;;5.45;100.00;102160.75;4945242;29;20384;-75
2022/10/13 06:46:26;;;;;;;5.30;3.70;;;;;;;5.49;100.00;102165.78;4953392;29;20044;-75
2022/10/13 06:48:52;;;;;;;;;;;;;;;5.59;100.00;102168.69;4959752;29;20059;-76
2022/10/13 06:51:18;;;;;;;5.13;3.30;;;;;;;5.55;100.00;102153.97;4958965;29;19957;-74
2022/10/13 06:53:43;;;;;;;6.67;3.73;;;;;;;5.65;100.00;102172.75;4943272;29;20063;-76
2022/10/13 06:56:09;;;;;;;5.83;3.30;;;;;;;5.56;100.00;102145.09;4938945;29;20024;-75
2022/10/13 06:58:36;;;;;;;9.53;3.50;;;;;;;5.69;100.00;102159.22;4937749;29;20388;-76
2022/10/13 07:01:02;;;;;;;8.20;4.33;;;;;;;5.77;100.00;102166.66;4937458;29;20086;-76
2022/10/13 07:03:28;;;;;;;9.60;4.23;;;;;;;5.83;100.00;102167.16;4937051;29;20130;-73
2022/10/13 07:06:07;;;;;;;4.80;3.77;;;;;;;5.81;100.00;102152.34;4936705;29;20155;-76
2022/10/13 07:08:38;;;;;;;6.67;3.13;;;;;;;5.82;100.00;102149.59;4919791;29;20486;-76
2022/10/13 07:11:11;;;;;;;5.38;3.08;;;;;;;5.96;100.00;102167.22;4903270;29;20076;-76
2022/10/13 07:13:38;;;;;;;6.63;2.67;;;;;;;6.00;100.00;102158.16;4918707;29;20035;-74
2022/10/13 07:16:04;;;;;;;4.93;2.90;;;;;;;6.06;100.00;102167.47;4903279;29;20071;-75
2022/10/13 07:18:30;;;;;;;6.83;4.23;;;;;;;6.15;100.00;102173.03;4919675;29;20040;-75
2022/10/13 07:20:58;;;;;;;8.07;4.27;;;;;;;6.20;100.00;102183.31;4935789;29;20062;-76
2022/10/13 07:23:26;;;;;;;6.63;4.10;;;;;;;6.20;99.83;102164.81;4919419;29;20039;-75
2022/10/13 07:25:58;;;;;;;5.50;3.30;;;;;;;6.10;99.37;102137.28;4936523;29;20035;-74
2022/10/13 07:28:26;;;;;;;6.40;3.87;;;;;;;6.38;98.51;102179.50;4918769;29;20035;-75
2022/10/13 07:30:55;;;;;;;5.93;3.38;;;;;;;6.44;98.33;102180.88;4903175;29;20488;-75
2022/10/13 07:33:21;;;;;;;5.40;2.58;;;;;;;6.50;96.74;102188.41;4918629;29;20039;-75
2022/10/13 07:35:47;;;;;;;3.70;2.53;;;;;;;6.49;96.08;102176.97;4919021;29;20031;-75
2022/10/13 07:38:12;;;;;;;7.50;4.37;;;;;;;6.53;96.22;102170.50;4903028;29;20050;-76
2022/10/13 07:40:38;;;;;;;4.80;3.30;;;;;;;6.53;95.31;102165.22;4902687;29;20031;-74
2022/10/13 07:43:42;;;;;;;4.47;3.20;;;;;;;6.42;96.14;102141.28;4902925;29;20058;-78
2022/10/13 07:46:11;;;;;;;4.13;2.93;;;;;;;6.70;95.51;102185.28;4910508;29;20106;-75
2022/10/13 07:48:38;;;;;;;5.03;3.70;;;;;;;6.78;95.01;102192.72;4920536;29;20460;-75
2022/10/13 07:51:08;;;;;;;7.70;3.80;;;;;;;6.68;94.77;102165.16;4936861;29;20047;-76
2022/10/13 07:54:23;;;;;;;14.63;4.77;;;;;;;6.72;95.10;102161.34;4937088;29;20039;-78
2022/10/13 07:57:08;;;;;;;7.93;4.37;;;;;;;6.65;93.76;102139.75;4903477;29;20071;-77
2022/10/13 08:00:36;;;;;;;7.13;3.93;;;;;;;7.04;93.27;102188.28;4954014;29;20051;-76
2022/10/13 08:07:00;;;;;;;5.43;4.00;;;;;;;7.03;92.29;102171.56;4898136;29;20044;-76
2022/10/13 08:09:35;;;;;;;8.50;3.60;;;;;;;7.03;91.87;102163.59;4926569;29;20102;-77
2022/10/13 08:12:03;;;;;;;5.80;3.00;;;;;;;7.28;90.58;102191.06;4937086;29;20506;-75
2022/10/13 08:14:29;;;;;;;4.70;2.67;;;;;;;7.30;89.08;102189.16;4919705;29;20066;-77
2022/10/13 08:16:56;;;;;;;3.97;2.90;;;;;;;7.35;87.76;102195.81;4935901;29;20519;-76
2022/10/13 08:19:25;;;;;;;5.23;3.03;;;;;;;7.36;88.03;102183.41;4935687;29;20357;-77
2022/10/13 08:21:51;;;;;;;4.32;3.03;;;;;;;7.39;87.63;102185.84;4935991;29;20032;-77
2022/10/13 08:24:18;;;;;;;4.97;2.70;;;;;;;7.48;85.59;102187.84;4934684;29;20448;-75
2022/10/13 08:30:37;;;;;;;5.70;2.10;;;;;;;7.61;85.68;102194.00;4906575;29;20148;-76
2022/10/13 08:33:03;;;;;;;7.10;3.17;;;;;;;7.62;85.22;102193.03;4935564;29;20034;-77
2022/10/13 08:35:34;;;;;;;2.58;2.13;;;;;;;7.67;84.30;102193.56;4935619;29;20151;-76
2022/10/13 08:37:59;;;;;;;4.37;2.20;;;;;;;7.72;84.26;102201.19;4935409;29;20083;-76
2022/10/13 08:40:25;;;;;;;9.33;2.73;;;;;;;7.75;83.75;102196.50;4935670;29;20028;-76
2022/10/13 08:42:50;;;;;;;4.07;2.30;;;;;;;7.81;83.00;102184.63;4935212;29;20127;-77
2022/10/13 08:45:29;;;;;;;3.40;2.00;;;;;;;7.91;81.93;102182.16;4935156;29;20052;-77
2022/10/13 08:48:24;;;;;;;6.13;2.33;;;;;;;7.94;81.17;102192.53;4935383;29;20156;-77
2022/10/13 08:50:55;;;;;;;2.80;1.70;;;;;;;7.90;79.44;102188.41;4935303;29;20043;-76
2022/10/13 08:53:29;;;;;;;2.00;1.40;;;;;;;7.97;79.34;102189.66;4935186;29;20038;-78
2022/10/13 08:56:13;;;;;;;6.17;2.60;;;;;;;8.03;80.19;102202.47;4934154;29;20038;-77
2022/10/13 08:58:40;;;;;;;5.57;1.80;;;;;;;8.10;79.27;102195.78;4934917;29;20027;-75
2022/10/13 09:01:18;;;;;;;7.53;2.00;;;;;;;8.22;80.42;102192.22;4934753;29;20123;-76
2022/10/13 09:03:51;;;;;;;5.53;2.33;;;;;;;8.24;79.92;102186.81;4918227;29;20027;-77
2022/10/13 09:06:47;;;;;;;5.10;1.90;;;;;;;8.29;79.62;102187.31;4935274;29;20171;-76
2022/10/13 09:09:15;;;;;;;4.53;2.37;;;;;;;8.21;79.56;102166.66;4934178;29;20130;-76
2022/10/13 09:11:46;;;;;;;8.30;1.80;;;;;;;8.35;79.13;102173.63;4934865;29;20035;-79
2022/10/13 09:14:20;;;;;;;5.57;1.67;;;;;;;8.52;79.35;102185.66;4935373;29;20043;-75
2022/10/13 09:16:47;;;;;;;3.33;2.00;;;;;;;8.60;78.50;102184.09;4934826;29;20034;-77
2022/10/13 09:19:24;;;;;;;3.77;1.73;;;;;;;8.74;78.48;102187.53;4934819;29;20028;-76
2022/10/13 09:21:53;;;;;;;3.80;1.70;;;;;;;8.77;76.28;102185.50;4934481;29;20031;-75
2022/10/13 09:24:20;;;;;;;2.92;2.25;;;;;;;8.77;76.88;102174.88;4934701;29;20433;-76
2022/10/13 09:26:48;;;;;;;4.00;1.63;;;;;;;8.83;76.85;102186.84;4934746;29;20392;-76
2022/10/13 09:29:24;;;;;;;1.92;1.83;;;;;;;8.80;76.03;102185.25;4934785;29;20050;-75
2022/10/13 09:31:53;;;;;;;3.53;1.40;;;;;;;8.87;76.04;102181.16;4942106;29;20031;-76
2022/10/13 09:34:18;;;;;;;6.97;2.08;;;;;;;8.94;76.15;102182.38;4943347;29;20365;-74
2022/10/13 09:37:25;;;;;;;2.73;1.37;;;;;;;8.98;73.92;102183.03;4945662;29;20099;-78
2022/10/13 09:40:39;;;;;;;5.17;1.80;;;;;;;8.98;73.63;102185.69;4914329;29;20024;-75
2022/10/13 09:43:26;;;;;;;4.13;1.80;;;;;;;9.02;74.55;102176.50;4933338;29;20036;-77
2022/10/13 09:45:54;;;;;;;8.47;2.67;;;;;;;9.19;74.90;102183.16;4927412;29;20380;-77
2022/10/13 09:48:35;;;;;;;3.33;1.93;;;;;;;9.20;74.31;102176.88;4942177;29;20145;-78
2022/10/13 09:51:37;;;;;;;3.83;1.60;;;;;;;9.19;74.38;102180.50;4938272;29;20027;-76
2022/10/13 09:54:04;;;;;;;2.00;1.60;;;;;;;9.06;74.21;102174.47;4922129;29;20035;-77
2022/10/13 09:56:55;;;;;;;8.57;2.23;;;;;;;9.07;73.34;102171.69;4937843;29;20032;-78
2022/10/13 10:00:00;;;;;;;5.83;1.60;;;;;;;9.17;72.69;102183.28;4920411;29;20506;-75
2022/10/13 10:03:10;;;;;;;4.40;1.80;;;;;;;9.20;71.65;102176.88;4935829;29;20039;-77
2022/10/13 10:05:54;;;;;;;8.33;1.70;;;;;;;9.17;72.71;102182.44;4921276;29;20036;-77
2022/10/13 10:08:30;;;;;;;3.07;1.70;;;;;;;9.17;74.02;102177.13;4937993;29;20114;-76
2022/10/13 10:11:11;;;;;;;3.60;1.40;;;;;;;9.12;72.58;102166.84;4938985;29;20032;-77
2022/10/13 10:13:36;;;;;;;4.80;1.83;;;;;;;9.06;72.60;102164.69;4936513;29;20036;-75
2022/10/13 10:16:33;;;;;;;1.87;1.13;;;;;;;9.23;70.26;102176.63;4920678;29;20031;-76
2022/10/13 10:19:21;;;;;;;2.83;1.73;;;;;;;9.19;69.80;102175.19;4934926;29;20040;-75
2022/10/13 10:22:39;;;;;;;1.42;0.90;;;;;;;9.12;67.05;102163.34;4938924;29;20028;-77
2022/10/13 10:25:36;;;;;;;6.20;2.23;;;;;;;9.14;67.98;102172.88;4897728;29;20045;-74
2022/10/13 10:28:14;;;;;;;2.88;1.27;;;;;;;9.13;70.18;102160.56;4897793;29;20040;-76
2022/10/13 10:30:47;;;;;;;2.40;1.40;;;;;;;9.13;70.84;102157.06;4931791;29;20034;-76
2022/10/13 10:33:39;;;;;;;3.07;1.10;;;;;;;9.21;69.15;102159.97;4937768;29;20066;-76
2022/10/13 10:36:17;;;;;;;2.13;1.67;;;;;;;9.23;67.67;102171.31;4938336;29;20055;-78
2022/10/13 10:39:12;;;;;;;6.20;1.77;;;;;;;9.25;68.09;102161.41;4937314;29;20055;-75
2022/10/13 10:42:01;;;;;;;2.23;2.03;;;;;;;9.25;67.96;102166.72;4919391;29;20134;-76
2022/10/13 10:44:35;;;;;;;5.03;3.20;;;;;;;9.21;66.46;102158.16;4937178;29;20032;-76
2022/10/13 10:47:21;;;;;;;1.77;1.20;;;;;;;9.31;67.25;102166.28;4937175;29;20059;-74
2022/10/13 10:49:47;;;;;;;3.13;2.43;;;;;;;9.30;67.03;102156.59;4920524;29;20040;-77
2022/10/13 10:52:23;;;;;;;1.30;1.20;;;;;;;9.37;64.88;102155.16;4937478;29;20027;-77
2022/10/13 10:54:55;;;;;;;1.40;1.30;;;;;;;9.38;64.66;102156.00;4937762;29;20087;-74
2022/10/13 10:57:36;;;;;;;7.50;2.10;;;;;;;9.39;64.64;102150.56;4938323;29;20039;-76
2022/10/13 11:00:09;;;;;;;4.30;1.83;;;;;;;9.42;64.42;102145.00;4947364;29;20027;-75
2022/10/13 11:03:01;;;;;;;2.67;1.30;;;;;;;9.47;63.47;102157.91;4930354;29;20028;-78
2022/10/13 11:05:56;;;;;;;1.90;1.20;;;;;;;9.46;65.16;102154.41;4943939;29;20063;-77
2022/10/13 11:08:48;;;;;;;2.77;1.50;;;;;;;9.50;65.96;102157.66;4948874;29;20035;-77
2022/10/13 11:11:25;;;;;;;3.10;1.13;;;;;;;9.49;63.45;102154.16;4954444;28;20087;-75
2022/10/13 11:14:04;;;;;;;3.47;1.70;;;;;;;9.46;63.73;102143.78;4958000;29;20047;-75
2022/10/13 11:16:33;;;;;;;4.00;1.52;;;;;;;9.45;62.89;102150.06;4954844;29;20099;-77
2022/10/13 11:19:04;;;;;;;1.30;1.17;;;;;;;9.50;62.50;102147.88;4947097;29;20031;-76
2022/10/13 11:21:51;;;;;;;4.33;1.10;;;;;;;9.53;63.29;102152.94;4947526;29;20142;-75
2022/10/13 11:24:33;;;;;;;2.95;1.90;;;;;;;9.63;63.35;102145.09;4944809;29;20069;-76
2022/10/13 11:27:10;;;;;;;7.10;3.60;;;;;;;9.74;63.55;102145.09;4943519;29;20042;-76
2022/10/13 11:29:50;;;;;;;8.43;2.10;;;;;;;9.81;63.15;102143.59;4937478;29;20042;-77
2022/10/13 11:32:25;;;;;;;9.47;2.43;;;;;;;9.89;63.75;102143.00;4936528;29;20035;-76
2022/10/13 11:35:06;;;;;;;18.87;2.20;;;;;;;9.94;63.87;102140.81;4936219;29;20059;-79
2022/10/13 11:38:03;;;;;;;2.83;1.30;;;;;;;9.99;63.05;102141.28;4936932;29;20043;-78
2022/10/13 11:41:01;;;;;;;4.93;2.10;;;;;;;10.02;62.65;102137.53;4936389;29;20059;-74
2022/10/13 11:43:33;;;;;;;3.67;2.17;;;;;;;10.04;63.18;102140.91;4919760;29;20043;-77
2022/10/13 11:46:12;;;;;;;2.47;1.50;;;;;;;9.92;62.68;102116.16;4937076;29;20035;-81
2022/10/13 11:49:33;;;;;;;3.47;1.27;;;;;;;10.10;62.34;102143.06;4936600;29;20434;-73
2022/10/13 11:52:28;;;;;;;1.77;1.30;;;;;;;10.10;62.60;102129.75;4936593;29;20158;-75
2022/10/13 11:55:09;;;;;;;2.03;1.30;;;;;;;10.11;62.28;102126.09;4937696;29;20083;-78
2022/10/13 11:57:36;;;;;;;5.07;2.03;;;;;;;10.15;63.31;102123.09;4937856;29;20424;-76
2022/10/13 12:00:04;;;;;;;5.17;1.50;;;;;;;10.22;61.51;102134.94;4937198;29;20031;-79